createdAt,value
2023-03-18T00:00:34.256Z,99557.47
2023-03-18T00:01:38.778Z,99560.19
2023-03-18T00:02:42.860Z,99558.44
2023-03-18T00:03:48.674Z,99549.06
2023-03-18T00:04:53.052Z,99550.78
2023-03-18T00:06:14.306Z,99549.84
2023-03-18T00:07:20.091Z,99548.13
2023-03-18T00:08:25.558Z,99549.91
2023-03-18T00:09:29.407Z,99547.34
2023-03-18T00:10:35.197Z,99542.94
2023-03-18T00:11:39.627Z,99552.63
2023-03-18T00:12:44.019Z,99550.88
2023-03-18T00:13:49.208Z,99550.09
2023-03-18T00:14:53.775Z,99550.88
2023-03-18T00:15:58.285Z,99544.13
2023-03-18T00:17:02.070Z,99538.78
2023-03-18T00:18:06.838Z,99545.00
2023-03-18T00:19:10.593Z,99542.41
2023-03-18T00:20:18.440Z,99543.41
2023-03-18T00:21:23.677Z,99539.13
2023-03-18T00:22:27.744Z,99547.88
2023-03-18T00:23:33.604Z,99544.50
2023-03-18T00:24:37.970Z,99540.16
2023-03-18T00:25:47.895Z,99541.88
2023-03-18T00:26:52.080Z,99535.91
2023-03-18T00:27:56.067Z,99535.91
2023-03-18T00:28:59.961Z,99544.59
2023-03-18T00:30:12.813Z,99545.50
2023-03-18T00:31:18.196Z,99543.81
2023-03-18T00:32:22.982Z,99542.03
2023-03-18T00:33:26.799Z,99542.88
2023-03-18T00:34:30.707Z,99540.31
2023-03-18T00:35:34.908Z,99543.81
2023-03-18T00:36:40.813Z,99546.44
2023-03-18T00:37:45.330Z,99546.38
2023-03-18T00:38:51.225Z,99549.06
2023-03-18T00:39:55.101Z,99545.59
2023-03-18T00:41:11.779Z,99537.78
2023-03-18T00:42:18.695Z,99537.88
2023-03-18T00:43:29.507Z,99544.00
2023-03-18T00:44:33.224Z,99540.50
2023-03-18T00:45:43.335Z,99542.28
2023-03-18T00:46:47.609Z,99538.78
2023-03-18T00:47:51.249Z,99537.03
2023-03-18T00:49:12.447Z,99539.66
2023-03-18T00:50:17.392Z,99529.28
2023-03-18T00:51:24.528Z,99532.75
2023-03-18T00:52:31.061Z,99534.56
2023-03-18T00:53:35.642Z,99530.22
2023-03-18T00:54:39.442Z,99520.63
2023-03-18T00:55:43.904Z,99526.81
2023-03-18T00:56:47.799Z,99519.84
2023-03-18T00:57:51.602Z,99523.34
2023-03-18T00:58:55.125Z,99514.66
2023-03-18T00:59:59.500Z,99519.91
2023-03-18T01:01:08.192Z,99521.81
2023-03-18T01:02:15.707Z,99527.84
2023-03-18T01:03:19.801Z,99527.94
2023-03-18T01:04:24.922Z,99519.19
2023-03-18T01:05:28.557Z,99528.78
2023-03-18T01:06:37.543Z,99528.78
2023-03-18T01:07:41.774Z,99522.75
2023-03-18T01:08:45.638Z,99522.88
2023-03-18T01:09:52.686Z,99520.38
2023-03-18T01:11:07.561Z,99518.53
2023-03-18T01:12:13.349Z,99519.66
2023-03-18T01:13:17.506Z,99520.44
2023-03-18T01:14:21.152Z,99520.59
2023-03-18T01:15:25.814Z,99512.72
2023-03-18T01:16:30.168Z,99514.56
2023-03-18T01:17:34.122Z,99514.66
2023-03-18T01:18:38.755Z,99512.94
2023-03-18T01:19:43.571Z,99514.75
2023-03-18T01:20:47.294Z,99507.78
2023-03-18T01:21:51.238Z,99500.75
2023-03-18T01:22:55.155Z,99500.13
2023-03-18T01:24:00.767Z,99507.16
2023-03-18T01:25:05.180Z,99507.16
2023-03-18T01:26:13.762Z,99509.72
2023-03-18T01:27:17.341Z,99506.28
2023-03-18T01:28:22.991Z,99499.28
2023-03-18T01:29:27.156Z,99509.81
2023-03-18T01:30:32.247Z,99507.41
2023-03-18T01:31:36.753Z,99500.47
2023-03-18T01:32:41.700Z,99505.16
2023-03-18T01:33:46.245Z,99502.56
2023-03-18T01:34:51.872Z,99504.28
2023-03-18T01:35:59.966Z,99500.88
2023-03-18T01:37:05.602Z,99501.94
2023-03-18T01:38:10.088Z,99504.91
2023-03-18T01:39:15.515Z,99504.88
2023-03-18T01:40:21.498Z,99500.66
2023-03-18T01:41:26.856Z,99497.22
2023-03-18T01:42:34.393Z,99500.16
2023-03-18T01:43:43.105Z,99496.69
2023-03-18T01:44:47.215Z,99498.47
2023-03-18T01:45:59.259Z,99499.34
2023-03-18T01:47:02.936Z,99496.72
2023-03-18T01:48:07.617Z,99504.63
2023-03-18T01:49:31.157Z,99499.34
2023-03-18T01:50:38.176Z,99501.13
2023-03-18T01:51:48.534Z,99494.94
2023-03-18T01:53:17.912Z,99491.44
2023-03-18T01:54:25.296Z,99493.22
2023-03-18T01:55:33.399Z,99493.22
2023-03-18T01:56:44.261Z,99494.06
2023-03-18T01:57:50.355Z,99498.47
2023-03-18T01:58:57.684Z,99497.56
2023-03-18T02:00:04.227Z,99495.00
2023-03-18T02:01:20.545Z,99498.47
2023-03-18T02:02:26.327Z,99501.09
2023-03-18T02:03:34.144Z,99502.91
2023-03-18T02:04:44.892Z,99496.78
2023-03-18T02:05:51.091Z,99500.34
2023-03-18T02:07:08.106Z,99504.88
2023-03-18T02:08:13.282Z,99499.63
2023-03-18T02:09:17.509Z,99495.31
2023-03-18T02:10:27.904Z,99494.47
2023-03-18T02:11:39.628Z,99493.63
2023-03-18T02:12:49.172Z,99493.75
2023-03-18T02:13:53.339Z,99493.00
2023-03-18T02:14:58.898Z,99486.97
2023-03-18T02:16:14.048Z,99497.53
2023-03-18T02:17:25.406Z,99491.44
2023-03-18T02:18:38.994Z,99493.38
2023-03-18T02:20:24.823Z,99485.72
2023-03-18T02:21:46.804Z,99485.91
2023-03-18T02:23:03.385Z,99490.28
2023-03-18T02:24:32.749Z,99492.13
2023-03-18T02:26:39.921Z,99494.94
2023-03-18T02:27:49.897Z,99488.91
2023-03-18T02:29:00.069Z,99494.16
2023-03-18T02:30:23.576Z,99500.25
2023-03-18T02:31:27.573Z,99489.81
2023-03-18T02:32:36.212Z,99494.09
2023-03-18T02:33:48.101Z,99501.25
2023-03-18T02:34:53.510Z,99497.75
2023-03-18T02:36:06.050Z,99498.53
2023-03-18T02:37:10.040Z,99484.69
2023-03-18T02:38:14.621Z,99492.38
2023-03-18T02:39:18.545Z,99487.97
2023-03-18T02:40:30.278Z,99480.09
2023-03-18T02:41:40.821Z,99484.50
2023-03-18T02:42:46.792Z,99481.88
2023-03-18T02:43:52.006Z,99490.59
2023-03-18T02:44:55.760Z,99487.13
2023-03-18T02:46:31.896Z,99488.97
2023-03-18T02:47:36.204Z,99491.69
2023-03-18T02:48:45.419Z,99491.75
2023-03-18T02:49:50.452Z,99487.31
2023-03-18T02:50:56.309Z,99489.94
2023-03-18T02:52:00.237Z,99497.75
2023-03-18T02:53:05.932Z,99499.47
2023-03-18T02:54:15.527Z,99490.78
2023-03-18T02:55:19.788Z,99486.50
2023-03-18T02:56:25.039Z,99488.28
2023-03-18T02:57:28.506Z,99491.81
2023-03-18T02:58:32.496Z,99487.47
2023-03-18T02:59:39.052Z,99494.56
2023-03-18T03:00:42.958Z,99491.09
2023-03-18T03:01:50.706Z,99487.56
2023-03-18T03:02:54.773Z,99490.28
2023-03-18T03:03:58.531Z,99484.28
2023-03-18T03:05:02.280Z,99489.47
2023-03-18T03:06:10.619Z,99486.00
2023-03-18T03:07:14.211Z,99484.41
2023-03-18T03:08:17.706Z,99488.84
2023-03-18T03:09:22.832Z,99483.66
2023-03-18T03:10:26.822Z,99488.06
2023-03-18T03:11:31.999Z,99493.31
2023-03-18T03:12:38.111Z,99486.34
2023-03-18T03:13:45.485Z,99484.59
2023-03-18T03:14:49.284Z,99485.53
2023-03-18T03:15:54.465Z,99488.97
2023-03-18T03:16:59.024Z,99490.78
2023-03-18T03:18:04.077Z,99486.66
2023-03-18T03:19:08.675Z,99497.94
2023-03-18T03:20:14.011Z,99503.97
2023-03-18T03:21:18.784Z,99492.63
2023-03-18T03:22:23.426Z,99488.28
2023-03-18T03:23:28.585Z,99485.59
2023-03-18T03:24:32.532Z,99493.66
2023-03-18T03:25:37.681Z,99491.84
2023-03-18T03:26:41.397Z,99493.53
2023-03-18T03:27:45.348Z,99495.25
2023-03-18T03:28:49.443Z,99490.06
2023-03-18T03:29:53.097Z,99495.25
2023-03-18T03:30:58.362Z,99491.72
2023-03-18T03:32:03.442Z,99493.41
2023-03-18T03:33:10.811Z,99487.44
2023-03-18T03:34:14.772Z,99483.91
2023-03-18T03:35:22.393Z,99485.53
2023-03-18T03:36:26.189Z,99488.16
2023-03-18T03:37:30.365Z,99486.66
2023-03-18T03:38:35.034Z,99490.84
2023-03-18T03:39:38.820Z,99489.09
2023-03-18T03:40:43.723Z,99491.72
2023-03-18T03:41:47.449Z,99496.09
2023-03-18T03:42:51.138Z,99491.72
2023-03-18T03:43:55.157Z,99489.09
2023-03-18T03:44:58.920Z,99487.38
2023-03-18T03:46:02.873Z,99496.09
2023-03-18T03:47:07.496Z,99487.38
2023-03-18T03:48:13.159Z,99488.28
2023-03-18T03:49:17.174Z,99489.16
2023-03-18T03:50:21.678Z,99491.78
2023-03-18T03:51:25.624Z,99490.91
2023-03-18T03:52:29.645Z,99492.69
2023-03-18T03:53:36.130Z,99496.16
2023-03-18T03:54:42.034Z,99493.59
2023-03-18T03:55:45.482Z,99495.41
2023-03-18T03:56:49.107Z,99499.81
2023-03-18T03:57:52.790Z,99498.03
2023-03-18T03:58:56.705Z,99493.69
2023-03-18T04:00:01.122Z,99501.56
2023-03-18T04:01:06.641Z,99493.69
2023-03-18T04:02:11.218Z,99502.44
2023-03-18T04:03:15.610Z,99494.56
2023-03-18T04:04:19.585Z,99490.22
2023-03-18T04:05:26.099Z,99490.22
2023-03-18T04:06:31.363Z,99493.03
2023-03-18T04:07:35.021Z,99495.59
2023-03-18T04:08:38.533Z,99496.31
2023-03-18T04:09:42.432Z,99494.53
2023-03-18T04:10:46.119Z,99495.38
2023-03-18T04:11:49.826Z,99497.09
2023-03-18T04:12:54.438Z,99493.66
2023-03-18T04:13:58.183Z,99491.13
2023-03-18T04:15:02.303Z,99491.94
2023-03-18T04:16:07.893Z,99490.28
2023-03-18T04:17:11.714Z,99499.00
2023-03-18T04:18:17.092Z,99492.91
2023-03-18T04:19:20.935Z,99497.19
2023-03-18T04:20:24.563Z,99495.47
2023-03-18T04:21:28.669Z,99497.19
2023-03-18T04:22:32.892Z,99486.75
2023-03-18T04:23:37.742Z,99487.59
2023-03-18T04:24:42.678Z,99492.13
2023-03-18T04:25:46.254Z,99499.25
2023-03-18T04:26:50.543Z,99494.28
2023-03-18T04:27:54.193Z,99504.78
2023-03-18T04:28:58.335Z,99507.25
2023-03-18T04:30:02.404Z,99509.66
2023-03-18T04:31:06.497Z,99515.69
2023-03-18T04:32:11.155Z,99511.22
2023-03-18T04:33:15.046Z,99512.16
2023-03-18T04:34:18.744Z,99506.81
2023-03-18T04:35:23.593Z,99509.53
2023-03-18T04:36:28.628Z,99511.13
2023-03-18T04:37:37.086Z,99512.00
2023-03-18T04:38:41.406Z,99515.34
2023-03-18T04:39:45.010Z,99510.94
2023-03-18T04:40:48.919Z,99518.81
2023-03-18T04:41:52.832Z,99510.91
2023-03-18T04:42:56.711Z,99523.28
2023-03-18T04:44:00.608Z,99513.53
2023-03-18T04:45:06.433Z,99515.56
2023-03-18T04:46:12.231Z,99518.88
2023-03-18T04:47:16.837Z,99511.00
2023-03-18T04:48:20.782Z,99511.06
2023-03-18T04:49:25.401Z,99520.66
2023-03-18T04:50:29.427Z,99524.13
2023-03-18T04:51:33.308Z,99519.88
2023-03-18T04:52:37.259Z,99519.00
2023-03-18T04:53:40.796Z,99511.94
2023-03-18T04:54:44.622Z,99520.59
2023-03-18T04:55:50.888Z,99523.22
2023-03-18T04:56:54.787Z,99527.56
2023-03-18T04:57:58.707Z,99520.50
2023-03-18T04:59:02.486Z,99523.97
2023-03-18T05:00:11.607Z,99516.09
2023-03-18T05:01:15.744Z,99519.66
2023-03-18T05:02:19.958Z,99526.66
2023-03-18T05:03:24.056Z,99525.78
2023-03-18T05:04:28.349Z,99517.88
2023-03-18T05:05:32.233Z,99523.22
2023-03-18T05:06:37.397Z,99524.78
2023-03-18T05:07:42.496Z,99523.91
2023-03-18T05:08:46.320Z,99518.59
2023-03-18T05:09:50.002Z,99515.91
2023-03-18T05:10:53.897Z,99515.03
2023-03-18T05:11:58.395Z,99522.78
2023-03-18T05:13:03.698Z,99516.72
2023-03-18T05:14:07.747Z,99517.66
2023-03-18T05:15:13.318Z,99513.25
2023-03-18T05:16:17.035Z,99517.53
2023-03-18T05:17:21.672Z,99521.22
2023-03-18T05:18:25.289Z,99522.72
2023-03-18T05:19:29.305Z,99520.88
2023-03-18T05:20:33.045Z,99523.56
2023-03-18T05:21:37.541Z,99520.94
2023-03-18T05:22:41.499Z,99523.50
2023-03-18T05:23:45.481Z,99523.47
2023-03-18T05:24:49.837Z,99515.59
2023-03-18T05:25:54.072Z,99533.84
2023-03-18T05:26:57.745Z,99521.72
2023-03-18T05:28:02.066Z,99522.47
2023-03-18T05:29:05.693Z,99529.34
2023-03-18T05:30:11.356Z,99529.50
2023-03-18T05:31:15.353Z,99523.28
2023-03-18T05:32:19.482Z,99529.38
2023-03-18T05:33:23.615Z,99526.59
2023-03-18T05:34:27.605Z,99526.53
2023-03-18T05:35:31.519Z,99523.84
2023-03-18T05:36:35.685Z,99524.66
2023-03-18T05:37:39.460Z,99528.13
2023-03-18T05:38:43.426Z,99527.22
2023-03-18T05:39:47.271Z,99528.00
2023-03-18T05:40:51.292Z,99538.44
2023-03-18T05:41:54.882Z,99534.88
2023-03-18T05:42:58.591Z,99535.78
2023-03-18T05:44:02.781Z,99531.25
2023-03-18T05:45:07.935Z,99530.28
2023-03-18T05:46:11.975Z,99523.25
2023-03-18T05:47:16.736Z,99530.16
2023-03-18T05:48:21.367Z,99528.22
2023-03-18T05:49:26.165Z,99519.47
2023-03-18T05:50:35.588Z,99522.22
2023-03-18T05:51:39.618Z,99527.34
2023-03-18T05:52:44.152Z,99528.09
2023-03-18T05:53:47.773Z,99515.75
2023-03-18T05:54:51.790Z,99521.81
2023-03-18T05:55:56.569Z,99521.75
2023-03-18T05:57:00.267Z,99516.44
2023-03-18T05:58:04.707Z,99518.06
2023-03-18T05:59:10.152Z,99517.03
2023-03-18T06:00:15.779Z,99516.97
2023-03-18T06:01:20.319Z,99515.94
2023-03-18T06:02:27.007Z,99514.88
2023-03-18T06:03:30.964Z,99515.97
2023-03-18T06:04:34.924Z,99521.13
2023-03-18T06:05:38.806Z,99518.25
2023-03-18T06:06:42.795Z,99523.28
2023-03-18T06:07:47.020Z,99520.44
2023-03-18T06:08:50.594Z,99526.50
2023-03-18T06:09:54.301Z,99526.38
2023-03-18T06:10:59.014Z,99519.03
2023-03-18T06:12:03.664Z,99513.38
2023-03-18T06:13:10.082Z,99516.69
2023-03-18T06:14:14.929Z,99518.06
2023-03-18T06:15:21.559Z,99522.06
2023-03-18T06:16:25.859Z,99513.66
2023-03-18T06:17:29.611Z,99516.38
2023-03-18T06:18:34.139Z,99520.19
2023-03-18T06:19:38.286Z,99519.69
2023-03-18T06:20:42.002Z,99516.38
2023-03-18T06:21:45.618Z,99522.63
2023-03-18T06:22:50.093Z,99522.38
2023-03-18T06:23:54.649Z,99523.78
2023-03-18T06:24:59.067Z,99519.91
2023-03-18T06:26:03.857Z,99520.13
2023-03-18T06:27:07.682Z,99521.50
2023-03-18T06:28:11.332Z,99523.13
2023-03-18T06:29:15.356Z,99519.88
2023-03-18T06:30:20.065Z,99528.88
2023-03-18T06:31:23.931Z,99521.34
2023-03-18T06:32:28.280Z,99523.47
2023-03-18T06:33:35.271Z,99521.75
2023-03-18T06:34:39.104Z,99518.84
2023-03-18T06:35:43.012Z,99522.13
2023-03-18T06:36:47.655Z,99524.41
2023-03-18T06:37:51.312Z,99525.97
2023-03-18T06:38:56.172Z,99522.81
2023-03-18T06:40:00.616Z,99521.25
2023-03-18T06:41:04.995Z,99527.28
2023-03-18T06:42:10.333Z,99528.53
2023-03-18T06:43:15.539Z,99524.03
2023-03-18T06:44:19.353Z,99526.50
2023-03-18T06:45:23.512Z,99528.56
2023-03-18T06:46:29.547Z,99525.97
2023-03-18T06:47:33.559Z,99532.03
2023-03-18T06:48:40.609Z,99530.03
2023-03-18T06:49:44.674Z,99535.22
2023-03-18T06:50:50.041Z,99521.94
2023-03-18T06:51:54.632Z,99532.84
2023-03-18T06:52:59.458Z,99522.19
2023-03-18T06:54:02.993Z,99524.97
2023-03-18T06:55:07.836Z,99517.41
2023-03-18T06:56:15.923Z,99523.56
2023-03-18T06:57:20.588Z,99525.91
2023-03-18T06:58:24.871Z,99524.50
2023-03-18T06:59:28.525Z,99526.66
2023-03-18T07:00:34.307Z,99522.31
2023-03-18T07:01:38.372Z,99521.38
2023-03-18T07:02:43.566Z,99523.56
2023-03-18T07:03:47.347Z,99516.97
2023-03-18T07:04:52.590Z,99517.19
2023-03-18T07:05:56.237Z,99508.81
2023-03-18T07:07:00.726Z,99511.53
2023-03-18T07:08:04.519Z,99518.66
2023-03-18T07:09:11.310Z,99525.09
2023-03-18T07:10:30.791Z,99525.47
2023-03-18T07:11:34.396Z,99522.88
2023-03-18T07:12:38.032Z,99519.25
2023-03-18T07:13:42.190Z,99526.56
2023-03-18T07:14:47.483Z,99525.59
2023-03-18T07:15:52.565Z,99526.84
2023-03-18T07:16:59.306Z,99524.84
2023-03-18T07:18:05.379Z,99531.38
2023-03-18T07:19:10.019Z,99535.38
2023-03-18T07:20:15.416Z,99530.00
2023-03-18T07:21:19.805Z,99529.00
2023-03-18T07:22:24.752Z,99526.88
2023-03-18T07:23:29.039Z,99532.81
2023-03-18T07:24:33.339Z,99522.31
2023-03-18T07:25:37.485Z,99521.91
2023-03-18T07:26:41.687Z,99524.38
2023-03-18T07:27:45.751Z,99528.97
2023-03-18T07:28:50.063Z,99527.00
2023-03-18T07:29:54.392Z,99527.03
2023-03-18T07:30:57.989Z,99534.63
2023-03-18T07:32:01.915Z,99524.00
2023-03-18T07:33:06.424Z,99531.34
2023-03-18T07:34:11.231Z,99528.50
2023-03-18T07:35:16.029Z,99524.03
2023-03-18T07:36:19.802Z,99533.38
2023-03-18T07:37:24.273Z,99532.34
2023-03-18T07:38:28.132Z,99533.66
2023-03-18T07:39:31.990Z,99527.78
2023-03-18T07:40:37.190Z,99526.22
2023-03-18T07:41:43.427Z,99527.66
2023-03-18T07:42:48.191Z,99526.66
2023-03-18T07:43:52.724Z,99531.75
2023-03-18T07:44:56.840Z,99531.75
2023-03-18T07:46:01.355Z,99537.00
2023-03-18T07:47:05.709Z,99528.53
2023-03-18T07:48:09.501Z,99540.84
2023-03-18T07:49:14.120Z,99542.25
2023-03-18T07:50:18.548Z,99540.03
2023-03-18T07:51:23.429Z,99542.72
2023-03-18T07:52:29.553Z,99537.53
2023-03-18T07:53:33.979Z,99532.53
2023-03-18T07:54:38.034Z,99538.47
2023-03-18T07:55:42.194Z,99536.03
2023-03-18T07:56:46.535Z,99533.53
2023-03-18T07:57:50.178Z,99526.03
2023-03-18T07:58:54.178Z,99526.75
2023-03-18T07:59:58.176Z,99531.69
2023-03-18T08:01:02.431Z,99530.00
2023-03-18T08:02:09.020Z,99524.63
2023-03-18T08:03:14.187Z,99533.72
2023-03-18T08:04:20.688Z,99534.56
2023-03-18T08:05:25.717Z,99526.28
2023-03-18T08:06:29.614Z,99530.69
2023-03-18T08:07:36.319Z,99534.13
2023-03-18T08:08:41.947Z,99534.22
2023-03-18T08:09:46.096Z,99533.22
2023-03-18T08:10:50.513Z,99541.19
2023-03-18T08:11:55.017Z,99536.91
2023-03-18T08:12:58.871Z,99531.19
2023-03-18T08:14:02.592Z,99533.56
2023-03-18T08:15:09.343Z,99533.03
2023-03-18T08:16:13.786Z,99528.66
2023-03-18T08:17:17.900Z,99526.47
2023-03-18T08:18:22.593Z,99529.09
2023-03-18T08:19:27.449Z,99534.56
2023-03-18T08:20:32.158Z,99531.19
2023-03-18T08:21:36.735Z,99533.13
2023-03-18T08:22:41.234Z,99525.94
2023-03-18T08:23:45.506Z,99535.19
2023-03-18T08:24:50.587Z,99527.78
2023-03-18T08:25:55.077Z,99531.75
2023-03-18T08:26:58.917Z,99522.38
2023-03-18T08:28:02.808Z,99534.97
2023-03-18T08:29:16.235Z,99527.94
2023-03-18T08:30:20.315Z,99531.41
2023-03-18T08:31:24.291Z,99531.22
2023-03-18T08:32:28.077Z,99533.16
2023-03-18T08:33:32.358Z,99534.13
2023-03-18T08:34:37.279Z,99532.13
2023-03-18T08:35:42.718Z,99535.56
2023-03-18T08:36:46.690Z,99530.69
2023-03-18T08:37:51.782Z,99530.28
2023-03-18T08:38:56.631Z,99536.69
2023-03-18T08:40:00.377Z,99533.53
2023-03-18T08:41:07.338Z,99533.25
2023-03-18T08:42:12.450Z,99534.88
2023-03-18T08:43:16.905Z,99534.63
2023-03-18T08:44:20.589Z,99534.97
2023-03-18T08:45:24.553Z,99534.81
2023-03-18T08:46:29.040Z,99527.28
2023-03-18T08:47:32.713Z,99529.25
2023-03-18T08:48:36.437Z,99537.31
2023-03-18T08:49:40.474Z,99531.09
2023-03-18T08:50:47.107Z,99532.84
2023-03-18T08:51:51.884Z,99524.94
2023-03-18T08:53:05.930Z,99530.63
2023-03-18T08:54:09.458Z,99526.78
2023-03-18T08:55:13.933Z,99534.00
2023-03-18T08:56:17.412Z,99529.47
2023-03-18T08:57:20.979Z,99538.47
2023-03-18T08:58:24.492Z,99532.94
2023-03-18T08:59:28.071Z,99525.75
2023-03-18T09:00:33.858Z,99533.81
2023-03-18T09:01:38.459Z,99537.00
2023-03-18T09:02:42.054Z,99527.13
2023-03-18T09:03:47.019Z,99525.72
2023-03-18T09:04:51.336Z,99531.41
2023-03-18T09:05:55.658Z,99533.38
2023-03-18T09:07:03.241Z,99530.59
2023-03-18T09:08:07.078Z,99524.53
2023-03-18T09:09:11.695Z,99526.84
2023-03-18T09:10:18.440Z,99528.72
2023-03-18T09:11:24.056Z,99525.47
2023-03-18T09:12:27.577Z,99525.06
2023-03-18T09:13:31.276Z,99522.09
2023-03-18T09:14:35.058Z,99523.59
2023-03-18T09:15:39.493Z,99523.41
2023-03-18T09:16:43.396Z,99523.16
2023-03-18T09:18:03.695Z,99526.28
2023-03-18T09:19:13.007Z,99524.19
2023-03-18T09:20:18.413Z,99521.78
2023-03-18T09:21:22.578Z,99521.59
2023-03-18T09:22:26.608Z,99529.16
2023-03-18T09:23:30.549Z,99515.94
2023-03-18T09:24:35.073Z,99516.72
2023-03-18T09:25:42.716Z,99524.47
2023-03-18T09:26:51.318Z,99508.66
2023-03-18T09:27:55.097Z,99513.75
2023-03-18T09:29:01.378Z,99509.97
2023-03-18T09:30:08.089Z,99513.84
2023-03-18T09:31:13.154Z,99513.03
2023-03-18T09:32:20.029Z,99517.13
2023-03-18T09:33:25.590Z,99514.81
2023-03-18T09:34:32.289Z,99512.28
2023-03-18T09:35:36.703Z,99511.09
2023-03-18T09:36:42.246Z,99508.88
2023-03-18T09:37:46.510Z,99516.44
2023-03-18T09:38:50.259Z,99510.50
2023-03-18T09:39:54.772Z,99514.13
2023-03-18T09:41:09.931Z,99521.06
2023-03-18T09:42:44.135Z,99519.25
2023-03-18T09:44:25.623Z,99508.16
2023-03-18T09:45:49.777Z,99517.38
2023-03-18T09:47:38.789Z,99519.75
2023-03-18T09:49:13.363Z,99515.81
2023-03-18T09:50:39.168Z,99516.97
2023-03-18T09:51:48.781Z,99511.50
2023-03-18T09:53:16.553Z,99516.31
2023-03-18T09:55:11.713Z,99511.63
2023-03-18T09:56:25.645Z,99513.19
2023-03-18T09:57:44.390Z,99519.63
2023-03-18T09:59:21.679Z,99521.50
2023-03-18T10:00:34.109Z,99518.81
2023-03-18T10:01:40.302Z,99508.94
2023-03-18T10:03:06.493Z,99508.97
2023-03-18T10:04:26.770Z,99508.25
2023-03-18T10:05:52.335Z,99504.97
2023-03-18T10:07:15.293Z,99506.31
2023-03-18T10:09:02.186Z,99510.34
2023-03-18T10:10:26.664Z,99503.84
2023-03-18T10:11:41.842Z,99502.34
2023-03-18T10:13:21.703Z,99504.34
2023-03-18T10:14:49.472Z,99513.63
2023-03-18T10:16:02.499Z,99502.34
2023-03-18T10:17:30.422Z,99510.47
2023-03-18T10:18:43.490Z,99507.88
2023-03-18T10:19:53.822Z,99506.78
2023-03-18T10:21:25.754Z,99508.69
2023-03-18T10:22:55.502Z,99503.31
2023-03-18T10:24:55.789Z,99491.81
2023-03-18T10:26:16.070Z,99493.78
2023-03-18T10:27:53.774Z,99493.63
2023-03-18T10:29:34.355Z,99491.25
2023-03-18T10:31:05.126Z,99492.03
2023-03-18T10:32:49.484Z,99485.59
2023-03-18T10:34:06.718Z,99485.78
2023-03-18T10:35:53.568Z,99481.16
2023-03-18T10:37:18.238Z,99492.06
2023-03-18T10:38:45.035Z,99486.28
2023-03-18T10:39:50.388Z,99488.78
2023-03-18T10:40:55.759Z,99486.50
2023-03-18T10:42:25.150Z,99481.66
2023-03-18T10:43:35.332Z,99485.44
2023-03-18T10:44:42.624Z,99487.25
2023-03-18T10:45:52.558Z,99482.88
2023-03-18T10:47:10.874Z,99482.41
2023-03-18T10:48:34.879Z,99480.16
2023-03-18T10:50:15.789Z,99476.88
2023-03-18T10:51:50.248Z,99476.63
2023-03-18T10:53:23.495Z,99477.00
2023-03-18T10:54:40.059Z,99465.13
2023-03-18T10:56:04.757Z,99474.72
2023-03-18T10:57:17.090Z,99473.16
2023-03-18T10:58:24.071Z,99469.91
2023-03-18T10:59:30.148Z,99470.97
2023-03-18T11:00:34.970Z,99468.31
2023-03-18T14:29:50.070Z,99286.56
2023-03-18T14:31:26.909Z,99285.47
2023-03-18T14:32:33.929Z,99287.16
2023-03-18T14:33:58.338Z,99278.69
2023-03-18T14:35:16.888Z,99283.88
2023-03-18T14:36:47.136Z,99283.19
2023-03-18T14:38:04.950Z,99290.25
2023-03-18T14:39:18.039Z,99286.16
2023-03-18T14:40:23.820Z,99286.00
2023-03-18T14:41:31.118Z,99282.06
2023-03-18T14:42:46.190Z,99285.84
2023-03-18T14:44:43.581Z,99276.13
2023-03-18T14:45:53.646Z,99277.25
2023-03-18T14:47:25.317Z,99281.03
2023-03-18T14:48:40.574Z,99278.66
2023-03-18T14:50:06.216Z,99277.81
2023-03-18T14:51:23.980Z,99279.75
2023-03-18T14:52:43.194Z,99276.81
2023-03-18T14:53:59.160Z,99277.94
2023-03-18T14:55:18.161Z,99282.16
2023-03-18T14:56:31.382Z,99283.28
2023-03-18T14:57:34.958Z,99277.53
2023-03-18T14:58:38.551Z,99280.38
2023-03-18T14:59:45.226Z,99281.47
2023-03-18T15:02:38.424Z,99270.91
2023-03-18T15:03:52.268Z,99279.94
2023-03-18T15:05:02.472Z,99274.75
2023-03-18T15:06:08.081Z,99278.41
2023-03-18T15:07:14.468Z,99277.00
2023-03-18T15:08:47.731Z,99277.00
2023-03-18T15:09:54.385Z,99275.16
2023-03-18T15:11:02.924Z,99279.53
2023-03-18T15:12:28.053Z,99278.69
2023-03-18T15:13:32.720Z,99281.09
2023-03-18T15:14:38.143Z,99280.09
2023-03-18T15:15:42.925Z,99273.06
2023-03-18T15:16:59.982Z,99275.72
2023-03-18T15:18:26.584Z,99274.31
2023-03-18T15:19:31.628Z,99275.16
2023-03-18T15:20:37.031Z,99265.00
2023-03-18T15:21:41.018Z,99272.78
2023-03-18T15:22:45.603Z,99278.13
2023-03-18T15:23:57.501Z,99275.03
2023-03-18T15:25:09.009Z,99282.38
2023-03-18T15:26:36.609Z,99281.50
2023-03-18T15:27:41.074Z,99270.94
2023-03-18T15:28:48.425Z,99275.59
2023-03-18T15:30:02.304Z,99270.25
2023-03-18T15:31:06.604Z,99274.47
2023-03-18T15:32:26.652Z,99277.44
2023-03-18T15:33:40.160Z,99267.03
2023-03-18T15:34:59.445Z,99278.97
2023-03-18T15:36:17.922Z,99270.53
2023-03-18T15:37:40.780Z,99272.06
2023-03-18T15:38:51.337Z,99278.13
2023-03-18T15:39:59.037Z,99282.19
2023-03-18T15:41:12.129Z,99276.84
2023-03-18T15:42:22.047Z,99277.84
2023-03-18T15:43:46.782Z,99279.25
2023-03-18T15:45:00.754Z,99278.13
2023-03-18T15:46:27.861Z,99283.72
2023-03-18T15:47:33.651Z,99278.38
2023-03-18T15:48:55.004Z,99283.03
2023-03-18T15:50:25.913Z,99276.59
2023-03-18T15:51:45.377Z,99275.16
2023-03-18T15:52:49.191Z,99292.19
2023-03-18T15:54:06.447Z,99277.53
2023-03-18T15:55:35.750Z,99285.13
2023-03-18T15:56:52.675Z,99285.41
2023-03-18T15:57:58.867Z,99290.63
2023-03-18T15:59:20.006Z,99292.59
2023-03-18T16:00:28.234Z,99289.47
2023-03-18T16:01:33.109Z,99284.56
2023-03-18T16:02:37.579Z,99287.22
2023-03-18T16:03:43.346Z,99288.44
2023-03-18T16:04:48.651Z,99291.41
2023-03-18T16:05:54.627Z,99290.81
2023-03-18T16:06:59.749Z,99290.66
2023-03-18T16:08:11.460Z,99294.31
2023-03-18T16:09:22.476Z,99292.19
2023-03-18T16:10:26.865Z,99292.03
2023-03-18T16:11:32.644Z,99289.50
2023-03-18T16:12:41.903Z,99295.00
2023-03-18T16:13:46.169Z,99298.53
2023-03-18T16:14:52.654Z,99292.34
2023-03-18T16:15:56.883Z,99295.72
2023-03-18T16:17:00.729Z,99298.28
2023-03-18T16:18:08.861Z,99300.94
2023-03-18T16:19:31.159Z,99301.91
2023-03-18T16:20:34.869Z,99300.06
2023-03-18T16:21:41.676Z,99298.13
2023-03-18T16:22:45.630Z,99302.63
2023-03-18T16:23:49.301Z,99305.16
2023-03-18T16:24:56.369Z,99305.03
2023-03-18T16:26:00.553Z,99300.53
2023-03-18T16:27:27.991Z,99307.56
2023-03-18T16:28:31.933Z,99303.19
2023-03-18T16:29:40.836Z,99302.34
2023-03-18T16:30:48.083Z,99304.19
2023-03-18T16:31:51.730Z,99301.78
2023-03-18T16:32:57.201Z,99308.00
2023-03-18T16:34:02.815Z,99306.31
2023-03-18T16:35:17.449Z,99308.38
2023-03-18T16:36:44.360Z,99311.19
2023-03-18T16:37:49.242Z,99298.22
2023-03-18T16:38:52.869Z,99308.06
2023-03-18T16:39:57.393Z,99303.72
2023-03-18T16:41:01.681Z,99305.53
2023-03-18T16:42:10.598Z,99306.66
2023-03-18T16:43:22.411Z,99313.94
2023-03-18T16:44:31.162Z,99310.56
2023-03-18T16:45:37.580Z,99303.53
2023-03-18T16:46:44.074Z,99310.84
2023-03-18T16:47:52.045Z,99309.13
2023-03-18T16:49:03.434Z,99311.94
2023-03-18T16:50:19.217Z,99309.41
2023-03-18T16:51:24.762Z,99319.28
2023-03-18T16:52:28.674Z,99314.19